sensor_id;sensor_type;location;lat;lon;timestamp;P1;durP1;ratioP1;P2;durP2;ratioP2
6564;SDS011;3316;44.118;27.258;2023-04-16T00:00:36;12.30;;;8.77;;
6564;SDS011;3316;44.118;27.258;2023-04-16T00:03:01;16.50;;;9.07;;
6564;SDS011;3316;44.118;27.258;2023-04-16T00:05:27;16.00;;;6.87;;
6564;SDS011;3316;44.118;27.258;2023-04-16T00:07:52;18.13;;;6.53;;
6564;SDS011;3316;44.118;27.258;2023-04-16T00:10:18;20.10;;;7.60;;
6564;SDS011;3316;44.118;27.258;2023-04-16T00:12:44;14.00;;;6.20;;
6564;SDS011;3316;44.118;27.258;2023-04-16T00:15:10;13.90;;;6.00;;
6564;SDS011;3316;44.118;27.258;2023-04-16T00:17:35;15.63;;;6.20;;
6564;SDS011;3316;44.118;27.258;2023-04-16T00:20:01;17.17;;;6.20;;
6564;SDS011;3316;44.118;27.258;2023-04-16T00:22:26;14.43;;;6.77;;
6564;SDS011;3316;44.118;27.258;2023-04-16T00:24:52;17.90;;;9.10;;
6564;SDS011;3316;44.118;27.258;2023-04-16T00:27:18;12.80;;;6.33;;
6564;SDS011;3316;44.118;27.258;2023-04-16T00:29:43;17.13;;;6.73;;
6564;SDS011;3316;44.118;27.258;2023-04-16T00:32:09;13.60;;;5.97;;
6564;SDS011;3316;44.118;27.258;2023-04-16T00:34:34;11.13;;;6.70;;
6564;SDS011;3316;44.118;27.258;2023-04-16T00:36:59;13.43;;;6.50;;
6564;SDS011;3316;44.118;27.258;2023-04-16T00:39:25;10.47;;;6.73;;
6564;SDS011;3316;44.118;27.258;2023-04-16T00:41:50;10.90;;;6.20;;
6564;SDS011;3316;44.118;27.258;2023-04-16T00:44:16;21.70;;;6.53;;
6564;SDS011;3316;44.118;27.258;2023-04-16T00:46:41;19.13;;;11.63;;
6564;SDS011;3316;44.118;27.258;2023-04-16T00:49:07;13.53;;;5.90;;
6564;SDS011;3316;44.118;27.258;2023-04-16T00:51:34;12.90;;;5.30;;
6564;SDS011;3316;44.118;27.258;2023-04-16T00:54:00;25.63;;;7.03;;
6564;SDS011;3316;44.118;27.258;2023-04-16T00:56:27;16.00;;;6.53;;
6564;SDS011;3316;44.118;27.258;2023-04-16T00:58:55;12.00;;;6.03;;
6564;SDS011;3316;44.118;27.258;2023-04-16T01:01:21;13.30;;;5.53;;
6564;SDS011;3316;44.118;27.258;2023-04-16T01:03:47;16.63;;;6.23;;
6564;SDS011;3316;44.118;27.258;2023-04-16T01:06:13;16.63;;;5.83;;
6564;SDS011;3316;44.118;27.258;2023-04-16T01:08:41;15.47;;;5.70;;
6564;SDS011;3316;44.118;27.258;2023-04-16T01:11:08;17.97;;;6.23;;
6564;SDS011;3316;44.118;27.258;2023-04-16T01:13:35;11.43;;;6.07;;
6564;SDS011;3316;44.118;27.258;2023-04-16T01:16:05;13.67;;;7.00;;
6564;SDS011;3316;44.118;27.258;2023-04-16T01:18:31;13.37;;;7.37;;
6564;SDS011;3316;44.118;27.258;2023-04-16T01:20:57;13.73;;;5.57;;
6564;SDS011;3316;44.118;27.258;2023-04-16T01:23:22;13.70;;;6.27;;
6564;SDS011;3316;44.118;27.258;2023-04-16T01:25:48;11.67;;;7.10;;
6564;SDS011;3316;44.118;27.258;2023-04-16T01:28:13;22.70;;;12.37;;
6564;SDS011;3316;44.118;27.258;2023-04-16T01:30:39;11.30;;;5.43;;
6564;SDS011;3316;44.118;27.258;2023-04-16T01:33:04;12.67;;;5.00;;
6564;SDS011;3316;44.118;27.258;2023-04-16T01:35:31;16.30;;;9.53;;
6564;SDS011;3316;44.118;27.258;2023-04-16T01:37:56;20.73;;;10.17;;
6564;SDS011;3316;44.118;27.258;2023-04-16T01:40:22;22.83;;;14.77;;
6564;SDS011;3316;44.118;27.258;2023-04-16T01:42:47;15.37;;;9.13;;
6564;SDS011;3316;44.118;27.258;2023-04-16T01:45:12;15.47;;;7.17;;
6564;SDS011;3316;44.118;27.258;2023-04-16T01:47:38;16.77;;;7.17;;
6564;SDS011;3316;44.118;27.258;2023-04-16T01:50:04;18.47;;;8.10;;
6564;SDS011;3316;44.118;27.258;2023-04-16T01:52:30;19.03;;;7.13;;
6564;SDS011;3316;44.118;27.258;2023-04-16T01:54:55;14.40;;;6.40;;
6564;SDS011;3316;44.118;27.258;2023-04-16T01:57:21;15.83;;;8.23;;
6564;SDS011;3316;44.118;27.258;2023-04-16T01:59:47;20.13;;;12.70;;
6564;SDS011;3316;44.118;27.258;2023-04-16T02:02:13;19.10;;;9.17;;
6564;SDS011;3316;44.118;27.258;2023-04-16T02:04:40;18.77;;;12.73;;
6564;SDS011;3316;44.118;27.258;2023-04-16T02:07:07;17.57;;;10.53;;
6564;SDS011;3316;44.118;27.258;2023-04-16T02:09:34;17.47;;;11.07;;
6564;SDS011;3316;44.118;27.258;2023-04-16T02:12:00;24.23;;;15.43;;
6564;SDS011;3316;44.118;27.258;2023-04-16T02:14:29;21.40;;;12.97;;
6564;SDS011;3316;44.118;27.258;2023-04-16T02:16:55;17.10;;;9.37;;
6564;SDS011;3316;44.118;27.258;2023-04-16T02:19:20;13.40;;;7.10;;
6564;SDS011;3316;44.118;27.258;2023-04-16T02:21:46;14.97;;;8.97;;
6564;SDS011;3316;44.118;27.258;2023-04-16T02:24:12;11.27;;;5.43;;
6564;SDS011;3316;44.118;27.258;2023-04-16T02:26:37;9.93;;;5.70;;
6564;SDS011;3316;44.118;27.258;2023-04-16T02:29:03;14.90;;;6.20;;
6564;SDS011;3316;44.118;27.258;2023-04-16T02:31:28;13.83;;;5.77;;
6564;SDS011;3316;44.118;27.258;2023-04-16T02:33:54;14.83;;;7.73;;
6564;SDS011;3316;44.118;27.258;2023-04-16T02:36:20;15.50;;;5.80;;
6564;SDS011;3316;44.118;27.258;2023-04-16T02:38:45;15.97;;;5.77;;
6564;SDS011;3316;44.118;27.258;2023-04-16T02:41:11;15.67;;;6.40;;
6564;SDS011;3316;44.118;27.258;2023-04-16T02:43:36;13.47;;;6.60;;
6564;SDS011;3316;44.118;27.258;2023-04-16T02:46:02;16.53;;;6.77;;
6564;SDS011;3316;44.118;27.258;2023-04-16T02:48:27;12.63;;;6.00;;
6564;SDS011;3316;44.118;27.258;2023-04-16T02:50:52;13.93;;;6.03;;
6564;SDS011;3316;44.118;27.258;2023-04-16T02:53:18;13.53;;;5.73;;
6564;SDS011;3316;44.118;27.258;2023-04-16T02:55:50;9.70;;;5.50;;
6564;SDS011;3316;44.118;27.258;2023-04-16T02:58:22;9.60;;;5.00;;
6564;SDS011;3316;44.118;27.258;2023-04-16T03:00:48;12.27;;;5.77;;
6564;SDS011;3316;44.118;27.258;2023-04-16T03:03:15;13.43;;;6.07;;
6564;SDS011;3316;44.118;27.258;2023-04-16T03:05:40;14.13;;;6.20;;
6564;SDS011;3316;44.118;27.258;2023-04-16T03:08:06;13.17;;;5.67;;
6564;SDS011;3316;44.118;27.258;2023-04-16T03:10:31;17.17;;;5.90;;
6564;SDS011;3316;44.118;27.258;2023-04-16T03:12:57;15.07;;;5.47;;
6564;SDS011;3316;44.118;27.258;2023-04-16T03:15:22;17.67;;;6.40;;
6564;SDS011;3316;44.118;27.258;2023-04-16T03:17:49;14.63;;;6.13;;
6564;SDS011;3316;44.118;27.258;2023-04-16T03:20:14;14.30;;;8.03;;
6564;SDS011;3316;44.118;27.258;2023-04-16T03:22:41;17.67;;;7.90;;
6564;SDS011;3316;44.118;27.258;2023-04-16T03:25:07;18.77;;;7.90;;
6564;SDS011;3316;44.118;27.258;2023-04-16T03:27:33;20.57;;;9.00;;
6564;SDS011;3316;44.118;27.258;2023-04-16T03:29:59;19.70;;;8.63;;
6564;SDS011;3316;44.118;27.258;2023-04-16T03:32:25;25.00;;;9.93;;
6564;SDS011;3316;44.118;27.258;2023-04-16T03:34:50;19.20;;;8.37;;
6564;SDS011;3316;44.118;27.258;2023-04-16T03:37:16;17.97;;;7.60;;
6564;SDS011;3316;44.118;27.258;2023-04-16T03:39:41;20.77;;;7.60;;
6564;SDS011;3316;44.118;27.258;2023-04-16T03:42:07;19.23;;;7.07;;
6564;SDS011;3316;44.118;27.258;2023-04-16T03:44:32;16.00;;;7.23;;
6564;SDS011;3316;44.118;27.258;2023-04-16T03:46:58;25.27;;;9.00;;
6564;SDS011;3316;44.118;27.258;2023-04-16T03:49:23;18.57;;;8.50;;
6564;SDS011;3316;44.118;27.258;2023-04-16T03:51:49;18.27;;;7.37;;
6564;SDS011;3316;44.118;27.258;2023-04-16T03:54:15;18.47;;;8.73;;
6564;SDS011;3316;44.118;27.258;2023-04-16T03:56:40;19.20;;;7.97;;
6564;SDS011;3316;44.118;27.258;2023-04-16T03:59:06;24.40;;;8.93;;
6564;SDS011;3316;44.118;27.258;2023-04-16T04:01:31;20.20;;;10.00;;
6564;SDS011;3316;44.118;27.258;2023-04-16T04:03:57;20.43;;;8.87;;
6564;SDS011;3316;44.118;27.258;2023-04-16T04:06:22;19.70;;;8.00;;
6564;SDS011;3316;44.118;27.258;2023-04-16T04:08:48;21.97;;;9.63;;
6564;SDS011;3316;44.118;27.258;2023-04-16T04:11:13;24.30;;;8.07;;
6564;SDS011;3316;44.118;27.258;2023-04-16T04:13:39;17.83;;;7.33;;
6564;SDS011;3316;44.118;27.258;2023-04-16T04:16:04;15.60;;;6.80;;
6564;SDS011;3316;44.118;27.258;2023-04-16T04:18:30;20.83;;;7.20;;
6564;SDS011;3316;44.118;27.258;2023-04-16T04:20:56;26.00;;;8.07;;
6564;SDS011;3316;44.118;27.258;2023-04-16T04:23:21;21.83;;;7.90;;
6564;SDS011;3316;44.118;27.258;2023-04-16T04:25:47;24.13;;;8.47;;
6564;SDS011;3316;44.118;27.258;2023-04-16T04:28:13;22.00;;;8.40;;
6564;SDS011;3316;44.118;27.258;2023-04-16T04:30:38;24.60;;;8.57;;
6564;SDS011;3316;44.118;27.258;2023-04-16T04:33:04;21.73;;;9.03;;
6564;SDS011;3316;44.118;27.258;2023-04-16T04:35:29;27.37;;;9.83;;
6564;SDS011;3316;44.118;27.258;2023-04-16T04:37:55;23.73;;;9.93;;
6564;SDS011;3316;44.118;27.258;2023-04-16T04:40:20;19.40;;;8.27;;
6564;SDS011;3316;44.118;27.258;2023-04-16T04:42:46;28.83;;;10.47;;
6564;SDS011;3316;44.118;27.258;2023-04-16T04:45:11;22.93;;;9.33;;
6564;SDS011;3316;44.118;27.258;2023-04-16T04:47:37;20.00;;;8.53;;
6564;SDS011;3316;44.118;27.258;2023-04-16T04:50:02;17.40;;;8.00;;
6564;SDS011;3316;44.118;27.258;2023-04-16T04:52:28;22.10;;;8.03;;
6564;SDS011;3316;44.118;27.258;2023-04-16T04:54:53;21.40;;;7.30;;
6564;SDS011;3316;44.118;27.258;2023-04-16T04:57:19;20.00;;;8.97;;
6564;SDS011;3316;44.118;27.258;2023-04-16T04:59:44;16.37;;;7.63;;
6564;SDS011;3316;44.118;27.258;2023-04-16T05:02:10;20.53;;;8.60;;
6564;SDS011;3316;44.118;27.258;2023-04-16T05:04:35;23.17;;;9.27;;
6564;SDS011;3316;44.118;27.258;2023-04-16T05:07:01;20.53;;;9.73;;
6564;SDS011;3316;44.118;27.258;2023-04-16T05:09:26;22.27;;;10.07;;
6564;SDS011;3316;44.118;27.258;2023-04-16T05:11:52;17.13;;;10.50;;
6564;SDS011;3316;44.118;27.258;2023-04-16T05:14:17;22.43;;;8.80;;
6564;SDS011;3316;44.118;27.258;2023-04-16T05:16:43;18.40;;;8.93;;
6564;SDS011;3316;44.118;27.258;2023-04-16T05:19:08;23.23;;;9.50;;
6564;SDS011;3316;44.118;27.258;2023-04-16T05:21:34;18.00;;;8.60;;
6564;SDS011;3316;44.118;27.258;2023-04-16T05:23:59;14.60;;;8.23;;
6564;SDS011;3316;44.118;27.258;2023-04-16T05:26:25;24.63;;;8.00;;
6564;SDS011;3316;44.118;27.258;2023-04-16T05:28:50;17.60;;;7.63;;
6564;SDS011;3316;44.118;27.258;2023-04-16T05:31:16;18.00;;;6.83;;
6564;SDS011;3316;44.118;27.258;2023-04-16T05:33:41;17.50;;;8.07;;
6564;SDS011;3316;44.118;27.258;2023-04-16T05:36:06;21.77;;;6.67;;
6564;SDS011;3316;44.118;27.258;2023-04-16T05:38:32;17.23;;;8.17;;
6564;SDS011;3316;44.118;27.258;2023-04-16T05:40:57;17.17;;;6.97;;
6564;SDS011;3316;44.118;27.258;2023-04-16T05:43:23;15.87;;;6.90;;
6564;SDS011;3316;44.118;27.258;2023-04-16T05:45:48;19.20;;;6.80;;
6564;SDS011;3316;44.118;27.258;2023-04-16T05:48:14;19.50;;;6.40;;
6564;SDS011;3316;44.118;27.258;2023-04-16T05:50:39;16.57;;;7.37;;
6564;SDS011;3316;44.118;27.258;2023-04-16T05:53:06;21.27;;;6.70;;
6564;SDS011;3316;44.118;27.258;2023-04-16T05:55:33;17.80;;;6.10;;
6564;SDS011;3316;44.118;27.258;2023-04-16T05:58:00;15.73;;;6.20;;
6564;SDS011;3316;44.118;27.258;2023-04-16T06:00:28;17.57;;;7.10;;
6564;SDS011;3316;44.118;27.258;2023-04-16T06:02:53;14.87;;;6.83;;
6564;SDS011;3316;44.118;27.258;2023-04-16T06:05:19;21.90;;;7.80;;
6564;SDS011;3316;44.118;27.258;2023-04-16T06:07:45;14.05;;;5.82;;
6564;SDS011;3316;44.118;27.258;2023-04-16T06:10:11;17.73;;;5.87;;
6564;SDS011;3316;44.118;27.258;2023-04-16T06:12:36;15.80;;;6.50;;
6564;SDS011;3316;44.118;27.258;2023-04-16T06:15:02;12.02;;;6.18;;
6564;SDS011;3316;44.118;27.258;2023-04-16T06:17:28;15.50;;;5.70;;
6564;SDS011;3316;44.118;27.258;2023-04-16T06:19:53;13.80;;;6.50;;
6564;SDS011;3316;44.118;27.258;2023-04-16T06:22:18;19.27;;;5.87;;
6564;SDS011;3316;44.118;27.258;2023-04-16T06:24:44;11.93;;;5.80;;
6564;SDS011;3316;44.118;27.258;2023-04-16T06:27:09;18.13;;;6.30;;
6564;SDS011;3316;44.118;27.258;2023-04-16T06:29:35;12.53;;;5.27;;
6564;SDS011;3316;44.118;27.258;2023-04-16T06:32:01;17.10;;;6.13;;
6564;SDS011;3316;44.118;27.258;2023-04-16T06:34:27;17.63;;;5.90;;
6564;SDS011;3316;44.118;27.258;2023-04-16T06:36:53;20.30;;;5.97;;
6564;SDS011;3316;44.118;27.258;2023-04-16T06:39:18;17.50;;;6.23;;
6564;SDS011;3316;44.118;27.258;2023-04-16T06:41:46;15.03;;;5.60;;
6564;SDS011;3316;44.118;27.258;2023-04-16T06:44:12;13.30;;;5.37;;
6564;SDS011;3316;44.118;27.258;2023-04-16T06:46:37;15.33;;;6.47;;
6564;SDS011;3316;44.118;27.258;2023-04-16T06:49:03;9.80;;;5.77;;
6564;SDS011;3316;44.118;27.258;2023-04-16T06:51:28;17.37;;;6.10;;
6564;SDS011;3316;44.118;27.258;2023-04-16T06:53:53;15.30;;;5.20;;
6564;SDS011;3316;44.118;27.258;2023-04-16T06:56:19;14.20;;;6.10;;
6564;SDS011;3316;44.118;27.258;2023-04-16T06:58:45;15.40;;;6.00;;
6564;SDS011;3316;44.118;27.258;2023-04-16T07:01:10;19.57;;;9.07;;
6564;SDS011;3316;44.118;27.258;2023-04-16T07:03:36;18.40;;;6.20;;
6564;SDS011;3316;44.118;27.258;2023-04-16T07:06:02;11.07;;;5.00;;
6564;SDS011;3316;44.118;27.258;2023-04-16T07:08:27;14.83;;;6.03;;
6564;SDS011;3316;44.118;27.258;2023-04-16T07:10:53;13.00;;;5.50;;
6564;SDS011;3316;44.118;27.258;2023-04-16T07:13:18;10.93;;;6.03;;
6564;SDS011;3316;44.118;27.258;2023-04-16T07:15:44;13.27;;;6.23;;
6564;SDS011;3316;44.118;27.258;2023-04-16T07:18:10;7.77;;;5.03;;
6564;SDS011;3316;44.118;27.258;2023-04-16T07:20:35;13.20;;;5.97;;
6564;SDS011;3316;44.118;27.258;2023-04-16T07:23:01;16.17;;;6.33;;
6564;SDS011;3316;44.118;27.258;2023-04-16T07:25:26;13.00;;;6.03;;
6564;SDS011;3316;44.118;27.258;2023-04-16T07:27:52;16.03;;;6.77;;
6564;SDS011;3316;44.118;27.258;2023-04-16T07:30:17;13.77;;;6.53;;
6564;SDS011;3316;44.118;27.258;2023-04-16T07:32:43;12.47;;;7.07;;
6564;SDS011;3316;44.118;27.258;2023-04-16T07:35:08;12.57;;;6.77;;
6564;SDS011;3316;44.118;27.258;2023-04-16T07:37:34;13.87;;;7.97;;
6564;SDS011;3316;44.118;27.258;2023-04-16T07:39:59;15.53;;;7.30;;
6564;SDS011;3316;44.118;27.258;2023-04-16T07:42:25;14.67;;;6.23;;
6564;SDS011;3316;44.118;27.258;2023-04-16T07:44:52;18.10;;;7.27;;
6564;SDS011;3316;44.118;27.258;2023-04-16T07:47:17;18.10;;;7.40;;
6564;SDS011;3316;44.118;27.258;2023-04-16T07:49:43;16.30;;;7.40;;
6564;SDS011;3316;44.118;27.258;2023-04-16T07:52:08;19.63;;;8.10;;
6564;SDS011;3316;44.118;27.258;2023-04-16T07:54:33;17.77;;;7.53;;
6564;SDS011;3316;44.118;27.258;2023-04-16T07:56:59;21.20;;;8.37;;
6564;SDS011;3316;44.118;27.258;2023-04-16T07:59:25;21.03;;;9.73;;
6564;SDS011;3316;44.118;27.258;2023-04-16T08:01:53;15.63;;;8.33;;
6564;SDS011;3316;44.118;27.258;2023-04-16T08:04:19;25.50;;;9.70;;
6564;SDS011;3316;44.118;27.258;2023-04-16T08:06:48;16.53;;;9.70;;
6564;SDS011;3316;44.118;27.258;2023-04-16T08:09:15;15.83;;;9.40;;
6564;SDS011;3316;44.118;27.258;2023-04-16T08:11:41;24.73;;;10.77;;
6564;SDS011;3316;44.118;27.258;2023-04-16T08:14:06;29.67;;;13.97;;
6564;SDS011;3316;44.118;27.258;2023-04-16T08:16:32;32.47;;;11.97;;
6564;SDS011;3316;44.118;27.258;2023-04-16T08:18:57;23.57;;;12.10;;
6564;SDS011;3316;44.118;27.258;2023-04-16T08:21:25;21.77;;;9.33;;
6564;SDS011;3316;44.118;27.258;2023-04-16T08:23:51;19.37;;;8.07;;
6564;SDS011;3316;44.118;27.258;2023-04-16T08:26:17;11.33;;;5.23;;
6564;SDS011;3316;44.118;27.258;2023-04-16T08:28:43;15.60;;;5.13;;
6564;SDS011;3316;44.118;27.258;2023-04-16T08:31:08;15.20;;;6.33;;
6564;SDS011;3316;44.118;27.258;2023-04-16T08:33:34;19.27;;;7.80;;
6564;SDS011;3316;44.118;27.258;2023-04-16T08:35:59;15.37;;;7.47;;
6564;SDS011;3316;44.118;27.258;2023-04-16T08:38:25;20.77;;;7.93;;
6564;SDS011;3316;44.118;27.258;2023-04-16T08:40:50;10.63;;;6.20;;
6564;SDS011;3316;44.118;27.258;2023-04-16T08:43:18;9.73;;;6.70;;
6564;SDS011;3316;44.118;27.258;2023-04-16T08:45:47;14.70;;;7.40;;
6564;SDS011;3316;44.118;27.258;2023-04-16T08:48:13;14.67;;;6.47;;
6564;SDS011;3316;44.118;27.258;2023-04-16T08:50:39;15.50;;;8.80;;
6564;SDS011;3316;44.118;27.258;2023-04-16T08:53:06;23.00;;;10.90;;
6564;SDS011;3316;44.118;27.258;2023-04-16T08:55:36;15.97;;;6.50;;
6564;SDS011;3316;44.118;27.258;2023-04-16T08:58:06;12.77;;;7.13;;
6564;SDS011;3316;44.118;27.258;2023-04-16T09:00:34;11.93;;;6.00;;
6564;SDS011;3316;44.118;27.258;2023-04-16T09:03:01;13.33;;;8.60;;
6564;SDS011;3316;44.118;27.258;2023-04-16T09:05:28;15.33;;;8.40;;
6564;SDS011;3316;44.118;27.258;2023-04-16T09:07:54;17.43;;;7.67;;
6564;SDS011;3316;44.118;27.258;2023-04-16T09:10:20;7.50;;;3.97;;
6564;SDS011;3316;44.118;27.258;2023-04-16T09:12:46;10.47;;;7.43;;
6564;SDS011;3316;44.118;27.258;2023-04-16T09:15:12;11.77;;;6.17;;
6564;SDS011;3316;44.118;27.258;2023-04-16T09:17:38;12.73;;;7.17;;
6564;SDS011;3316;44.118;27.258;2023-04-16T09:20:04;9.07;;;4.03;;
6564;SDS011;3316;44.118;27.258;2023-04-16T09:22:33;6.73;;;3.97;;
6564;SDS011;3316;44.118;27.258;2023-04-16T09:24:59;11.17;;;6.03;;
6564;SDS011;3316;44.118;27.258;2023-04-16T09:27:24;9.20;;;4.47;;
6564;SDS011;3316;44.118;27.258;2023-04-16T09:29:51;14.13;;;5.10;;
6564;SDS011;3316;44.118;27.258;2023-04-16T09:32:16;6.57;;;3.53;;
6564;SDS011;3316;44.118;27.258;2023-04-16T09:34:55;8.63;;;5.40;;
6564;SDS011;3316;44.118;27.258;2023-04-16T09:37:22;12.20;;;7.03;;
6564;SDS011;3316;44.118;27.258;2023-04-16T09:39:53;8.73;;;5.60;;
6564;SDS011;3316;44.118;27.258;2023-04-16T09:42:23;11.83;;;8.10;;
6564;SDS011;3316;44.118;27.258;2023-04-16T09:44:51;8.80;;;4.37;;
6564;SDS011;3316;44.118;27.258;2023-04-16T09:47:17;8.27;;;3.77;;
6564;SDS011;3316;44.118;27.258;2023-04-16T09:49:43;13.97;;;7.53;;
6564;SDS011;3316;44.118;27.258;2023-04-16T09:52:16;13.97;;;8.10;;
6564;SDS011;3316;44.118;27.258;2023-04-16T09:54:46;8.83;;;3.87;;
6564;SDS011;3316;44.118;27.258;2023-04-16T09:57:13;4.97;;;3.33;;
6564;SDS011;3316;44.118;27.258;2023-04-16T09:59:42;8.23;;;3.70;;
6564;SDS011;3316;44.118;27.258;2023-04-16T10:02:07;11.10;;;4.40;;
6564;SDS011;3316;44.118;27.258;2023-04-16T10:04:49;8.30;;;3.70;;
6564;SDS011;3316;44.118;27.258;2023-04-16T10:07:15;9.87;;;3.87;;
6564;SDS011;3316;44.118;27.258;2023-04-16T10:09:41;8.80;;;3.97;;
6564;SDS011;3316;44.118;27.258;2023-04-16T10:12:07;10.83;;;4.40;;
6564;SDS011;3316;44.118;27.258;2023-04-16T10:14:33;10.20;;;4.07;;
6564;SDS011;3316;44.118;27.258;2023-04-16T10:16:59;9.43;;;4.30;;
6564;SDS011;3316;44.118;27.258;2023-04-16T10:19:25;8.23;;;4.03;;
6564;SDS011;3316;44.118;27.258;2023-04-16T10:21:51;11.32;;;4.13;;
6564;SDS011;3316;44.118;27.258;2023-04-16T10:24:17;11.23;;;4.38;;
6564;SDS011;3316;44.118;27.258;2023-04-16T10:26:43;6.80;;;3.90;;
6564;SDS011;3316;44.118;27.258;2023-04-16T10:29:12;10.10;;;4.82;;
6564;SDS011;3316;44.118;27.258;2023-04-16T10:31:37;9.98;;;4.68;;
6564;SDS011;3316;44.118;27.258;2023-04-16T10:34:04;7.72;;;4.93;;
6564;SDS011;3316;44.118;27.258;2023-04-16T10:36:35;13.90;;;5.50;;
6564;SDS011;3316;44.118;27.258;2023-04-16T10:39:01;7.35;;;4.28;;
6564;SDS011;3316;44.118;27.258;2023-04-16T10:41:27;10.20;;;5.18;;
6564;SDS011;3316;44.118;27.258;2023-04-16T10:43:54;11.03;;;5.27;;
6564;SDS011;3316;44.118;27.258;2023-04-16T10:46:31;10.80;;;5.50;;
6564;SDS011;3316;44.118;27.258;2023-04-16T10:49:01;14.73;;;5.87;;
6564;SDS011;3316;44.118;27.258;2023-04-16T10:51:36;19.17;;;6.40;;
6564;SDS011;3316;44.118;27.258;2023-04-16T10:56:27;11.57;;;5.43;;
6564;SDS011;3316;44.118;27.258;2023-04-16T10:58:56;9.67;;;5.83;;
6564;SDS011;3316;44.118;27.258;2023-04-16T11:01:31;12.27;;;6.00;;
6564;SDS011;3316;44.118;27.258;2023-04-16T11:04:01;12.67;;;6.03;;
6564;SDS011;3316;44.118;27.258;2023-04-16T11:12:15;12.93;;;6.00;;
6564;SDS011;3316;44.118;27.258;2023-04-16T11:15:00;13.17;;;6.17;;
6564;SDS011;3316;44.118;27.258;2023-04-16T11:17:28;12.60;;;6.47;;
6564;SDS011;3316;44.118;27.258;2023-04-16T11:19:56;13.47;;;5.93;;
6564;SDS011;3316;44.118;27.258;2023-04-16T11:22:21;13.53;;;6.77;;
6564;SDS011;3316;44.118;27.258;2023-04-16T11:24:52;9.83;;;6.07;;
6564;SDS011;3316;44.118;27.258;2023-04-16T11:27:19;12.00;;;6.77;;
6564;SDS011;3316;44.118;27.258;2023-04-16T11:29:44;9.27;;;6.10;;
6564;SDS011;3316;44.118;27.258;2023-04-16T11:32:10;14.20;;;6.23;;
6564;SDS011;3316;44.118;27.258;2023-04-16T11:34:45;14.57;;;6.53;;
6564;SDS011;3316;44.118;27.258;2023-04-16T11:37:11;13.33;;;6.40;;
6564;SDS011;3316;44.118;27.258;2023-04-16T11:39:52;10.63;;;7.03;;
6564;SDS011;3316;44.118;27.258;2023-04-16T11:42:18;11.77;;;6.63;;
6564;SDS011;3316;44.118;27.258;2023-04-16T11:44:45;10.93;;;7.40;;
6564;SDS011;3316;44.118;27.258;2023-04-16T11:47:10;9.27;;;6.57;;
6564;SDS011;3316;44.118;27.258;2023-04-16T11:49:37;12.07;;;7.03;;
6564;SDS011;3316;44.118;27.258;2023-04-16T11:52:03;12.60;;;7.80;;
6564;SDS011;3316;44.118;27.258;2023-04-16T11:54:28;14.80;;;6.80;;
6564;SDS011;3316;44.118;27.258;2023-04-16T11:56:58;13.70;;;6.93;;
6564;SDS011;3316;44.118;27.258;2023-04-16T11:59:24;10.60;;;6.30;;
6564;SDS011;3316;44.118;27.258;2023-04-16T12:01:52;8.27;;;6.30;;
6564;SDS011;3316;44.118;27.258;2023-04-16T12:04:21;8.83;;;5.50;;
6564;SDS011;3316;44.118;27.258;2023-04-16T12:07:09;7.07;;;5.60;;
6564;SDS011;3316;44.118;27.258;2023-04-16T12:09:36;5.87;;;4.63;;
6564;SDS011;3316;44.118;27.258;2023-04-16T12:12:02;11.37;;;5.47;;
6564;SDS011;3316;44.118;27.258;2023-04-16T12:14:29;7.93;;;5.47;;
6564;SDS011;3316;44.118;27.258;2023-04-16T12:16:55;9.37;;;6.67;;
6564;SDS011;3316;44.118;27.258;2023-04-16T12:19:47;7.97;;;5.80;;
6564;SDS011;3316;44.118;27.258;2023-04-16T12:22:32;10.43;;;6.87;;
6564;SDS011;3316;44.118;27.258;2023-04-16T12:25:04;9.23;;;6.63;;
6564;SDS011;3316;44.118;27.258;2023-04-16T12:27:47;8.50;;;5.53;;
6564;SDS011;3316;44.118;27.258;2023-04-16T12:30:17;6.80;;;5.23;;
6564;SDS011;3316;44.118;27.258;2023-04-16T12:32:45;6.73;;;5.10;;
6564;SDS011;3316;44.118;27.258;2023-04-16T12:35:12;6.43;;;4.20;;
6564;SDS011;3316;44.118;27.258;2023-04-16T12:37:52;6.07;;;4.40;;
6564;SDS011;3316;44.118;27.258;2023-04-16T12:40:18;6.57;;;4.03;;
6564;SDS011;3316;44.118;27.258;2023-04-16T12:42:43;6.50;;;4.20;;
6564;SDS011;3316;44.118;27.258;2023-04-16T12:45:09;6.83;;;4.30;;
6564;SDS011;3316;44.118;27.258;2023-04-16T12:47:35;4.10;;;3.50;;
6564;SDS011;3316;44.118;27.258;2023-04-16T12:50:00;6.63;;;4.00;;
6564;SDS011;3316;44.118;27.258;2023-04-16T12:52:26;5.40;;;4.10;;
6564;SDS011;3316;44.118;27.258;2023-04-16T12:54:51;8.63;;;4.77;;
6564;SDS011;3316;44.118;27.258;2023-04-16T12:57:17;6.07;;;4.63;;
6564;SDS011;3316;44.118;27.258;2023-04-16T12:59:43;7.90;;;4.63;;
6564;SDS011;3316;44.118;27.258;2023-04-16T13:02:08;8.10;;;4.47;;
6564;SDS011;3316;44.118;27.258;2023-04-16T13:04:34;6.83;;;4.13;;
6564;SDS011;3316;44.118;27.258;2023-04-16T13:06:59;5.93;;;3.80;;
6564;SDS011;3316;44.118;27.258;2023-04-16T13:09:25;4.97;;;4.13;;
6564;SDS011;3316;44.118;27.258;2023-04-16T13:11:51;5.63;;;3.73;;
6564;SDS011;3316;44.118;27.258;2023-04-16T13:14:16;4.17;;;3.57;;
6564;SDS011;3316;44.118;27.258;2023-04-16T13:16:42;5.13;;;3.57;;
6564;SDS011;3316;44.118;27.258;2023-04-16T13:19:07;8.53;;;4.60;;
6564;SDS011;3316;44.118;27.258;2023-04-16T13:21:32;6.83;;;4.47;;
6564;SDS011;3316;44.118;27.258;2023-04-16T13:23:58;7.50;;;4.60;;
6564;SDS011;3316;44.118;27.258;2023-04-16T13:26:24;6.27;;;4.17;;
6564;SDS011;3316;44.118;27.258;2023-04-16T13:28:50;5.60;;;4.13;;
6564;SDS011;3316;44.118;27.258;2023-04-16T13:31:15;9.30;;;4.20;;
6564;SDS011;3316;44.118;27.258;2023-04-16T13:33:44;6.00;;;4.33;;
6564;SDS011;3316;44.118;27.258;2023-04-16T13:36:10;5.97;;;4.10;;
6564;SDS011;3316;44.118;27.258;2023-04-16T13:38:35;5.90;;;3.67;;
6564;SDS011;3316;44.118;27.258;2023-04-16T13:41:01;4.70;;;3.63;;
6564;SDS011;3316;44.118;27.258;2023-04-16T13:43:26;6.33;;;3.47;;
6564;SDS011;3316;44.118;27.258;2023-04-16T13:45:52;8.23;;;3.97;;
6564;SDS011;3316;44.118;27.258;2023-04-16T13:48:17;6.77;;;4.03;;
6564;SDS011;3316;44.118;27.258;2023-04-16T13:50:43;9.73;;;3.77;;
6564;SDS011;3316;44.118;27.258;2023-04-16T13:53:08;5.47;;;4.82;;
6564;SDS011;3316;44.118;27.258;2023-04-16T13:55:34;8.93;;;3.87;;
6564;SDS011;3316;44.118;27.258;2023-04-16T13:57:59;11.33;;;5.07;;
6564;SDS011;3316;44.118;27.258;2023-04-16T14:00:25;10.03;;;5.23;;
6564;SDS011;3316;44.118;27.258;2023-04-16T14:02:51;29.10;;;11.33;;
6564;SDS011;3316;44.118;27.258;2023-04-16T14:05:17;7.83;;;4.60;;
6564;SDS011;3316;44.118;27.258;2023-04-16T14:07:43;12.37;;;5.13;;
6564;SDS011;3316;44.118;27.258;2023-04-16T14:10:10;10.20;;;5.50;;
6564;SDS011;3316;44.118;27.258;2023-04-16T14:12:36;7.70;;;4.83;;
6564;SDS011;3316;44.118;27.258;2023-04-16T14:15:03;8.27;;;4.27;;
6564;SDS011;3316;44.118;27.258;2023-04-16T14:17:30;6.50;;;4.27;;
6564;SDS011;3316;44.118;27.258;2023-04-16T14:19:56;7.43;;;4.00;;
6564;SDS011;3316;44.118;27.258;2023-04-16T14:22:21;8.30;;;4.27;;
6564;SDS011;3316;44.118;27.258;2023-04-16T14:24:46;7.93;;;4.63;;
6564;SDS011;3316;44.118;27.258;2023-04-16T14:27:12;10.50;;;4.57;;
6564;SDS011;3316;44.118;27.258;2023-04-16T14:29:41;7.32;;;4.20;;
6564;SDS011;3316;44.118;27.258;2023-04-16T14:32:08;6.60;;;3.83;;
6564;SDS011;3316;44.118;27.258;2023-04-16T14:34:33;5.93;;;3.23;;
6564;SDS011;3316;44.118;27.258;2023-04-16T14:36:59;9.50;;;3.90;;
6564;SDS011;3316;44.118;27.258;2023-04-16T14:39:24;7.97;;;3.67;;
6564;SDS011;3316;44.118;27.258;2023-04-16T14:41:51;4.23;;;3.50;;
6564;SDS011;3316;44.118;27.258;2023-04-16T14:44:16;5.90;;;3.77;;
6564;SDS011;3316;44.118;27.258;2023-04-16T14:46:41;8.20;;;4.00;;
6564;SDS011;3316;44.118;27.258;2023-04-16T14:49:07;7.50;;;4.00;;
6564;SDS011;3316;44.118;27.258;2023-04-16T14:51:34;7.33;;;4.00;;
6564;SDS011;3316;44.118;27.258;2023-04-16T14:54:01;6.13;;;3.63;;